Time;durP1;ratioP1;P1;durP2;ratioP2;P2;SDS_P1;SDS_P2;PMS_P1;PMS_P2;Temp;Humidity;BMP_temperature;BMP_pressure;BME280_temperature;BME280_humidity;BME280_pressure;Samples;Min_cycle;Max_cycle;Signal;HPM_P1;HPM_P2
2022/08/29 00:00:59;;;;;;;8.30;6.97;;;;;;;20.36;66.03;99502.84;4945243;28;20207;-77
2022/08/29 00:03:25;;;;;;;9.87;8.87;;;;;;;20.38;66.32;99506.19;4951863;28;21212;-75
2022/08/29 00:05:51;;;;;;;8.77;7.93;;;;;;;20.38;66.30;99510.69;4947728;28;20458;-75
2022/08/29 00:08:17;;;;;;;8.97;8.20;;;;;;;20.38;66.33;99508.84;4953773;28;20488;-75
2022/08/29 00:10:43;;;;;;;7.47;6.67;;;;;;;20.38;66.22;99508.84;4948463;28;20489;-75
2022/08/29 00:13:10;;;;;;;8.60;7.60;;;;;;;20.34;66.30;99512.84;4955089;28;20419;-75
2022/08/29 00:15:36;;;;;;;8.13;7.03;;;;;;;20.31;66.26;99514.00;4950182;28;20696;-76
2022/08/29 00:18:02;;;;;;;8.80;7.20;;;;;;;20.32;66.41;99514.84;4950691;28;20496;-79
2022/08/29 00:20:30;;;;;;;8.07;7.13;;;;;;;20.33;66.29;99516.50;4954193;28;20875;-76
2022/08/29 00:22:56;;;;;;;9.23;6.43;;;;;;;20.34;66.07;99519.00;4947988;28;20499;-79
2022/08/29 00:25:22;;;;;;;7.97;7.27;;;;;;;20.34;65.95;99516.34;4954413;28;20864;-77
2022/08/29 00:27:47;;;;;;;8.47;7.07;;;;;;;20.37;65.87;99514.38;4956504;28;20494;-75
2022/08/29 00:30:14;;;;;;;8.83;7.60;;;;;;;20.36;65.60;99521.53;4954673;28;20263;-75
2022/08/29 00:32:39;;;;;;;10.35;7.93;;;;;;;20.33;65.73;99528.03;4956152;28;20490;-77
2022/08/29 00:35:10;;;;;;;7.83;7.03;;;;;;;20.24;65.86;99520.16;4955153;28;20571;-75
2022/08/29 00:37:36;;;;;;;8.27;7.43;;;;;;;20.25;65.88;99525.34;4953042;28;20342;-75
2022/08/29 00:40:04;;;;;;;8.47;7.67;;;;;;;20.26;65.75;99528.84;4959460;28;21157;-75
2022/08/29 00:42:30;;;;;;;7.50;6.80;;;;;;;20.27;65.76;99523.31;4955746;28;20220;-75
2022/08/29 00:44:56;;;;;;;9.17;7.57;;;;;;;20.31;65.67;99523.84;4952220;28;20475;-76
2022/08/29 00:50:34;;;;;;;8.13;7.30;;;;;;;20.32;65.70;99520.19;4911700;29;20748;-78
2022/08/29 00:53:02;;;;;;;7.83;7.03;;;;;;;20.36;65.76;99515.34;4919742;29;20472;-78
2022/08/29 00:55:32;;;;;;;9.20;8.00;;;;;;;20.36;65.52;99531.34;4922518;29;20929;-78
2022/08/29 00:58:03;;;;;;;11.13;8.30;;;;;;;20.32;65.75;99525.50;4928822;28;20511;-78
2022/08/29 01:00:30;;;;;;;8.27;7.47;;;;;;;20.30;65.83;99528.31;4944549;28;20454;-78
2022/08/29 01:02:56;;;;;;;9.27;7.77;;;;;;;20.29;65.92;99529.34;4939393;28;20833;-78
2022/08/29 01:05:23;;;;;;;11.47;9.00;;;;;;;20.29;65.94;99531.16;4943306;28;20483;-78
2022/08/29 01:07:48;;;;;;;8.03;7.33;;;;;;;20.23;66.11;99532.66;4942749;28;20778;-78
2022/08/29 01:12:14;;;;;;;9.60;7.90;;;;;;;20.15;66.58;99531.78;4940611;28;20534;-78
2022/08/29 01:13:02;;;;;;;8.17;7.20;;;;;;;20.10;66.55;99538.44;4944122;28;20211;-78
2022/08/29 01:15:29;;;;;;;12.63;7.90;;;;;;;20.06;66.82;99534.44;4940997;28;20569;-78
2022/08/29 01:17:57;;;;;;;10.73;8.30;;;;;;;20.05;66.83;99530.06;4942427;28;20863;-78
2022/08/29 01:20:37;;;;;;;8.53;7.63;;;;;;;20.03;66.83;99529.41;4948162;28;20848;-78
2022/08/29 01:23:08;;;;;;;8.87;8.00;;;;;;;20.03;66.84;99525.91;4944837;28;20848;-78
2022/08/29 01:25:38;;;;;;;9.17;7.53;;;;;;;20.03;66.86;99534.72;4945808;28;20461;-78
2022/08/29 01:28:10;;;;;;;9.43;8.47;;;;;;;20.04;66.88;99527.59;4946106;28;20476;-79
2022/08/29 01:30:37;;;;;;;9.70;7.93;;;;;;;20.02;66.92;99535.75;4947104;28;20837;-78
2022/08/29 01:33:02;;;;;;;9.43;7.90;;;;;;;20.00;66.87;99540.38;4945341;28;20504;-78
2022/08/29 01:35:28;;;;;;;12.60;8.53;;;;;;;20.00;66.87;99539.56;4944671;28;20773;-78
2022/08/29 01:37:53;;;;;;;9.10;6.87;;;;;;;19.95;66.96;99532.03;4945681;28;20238;-78
2022/08/29 01:40:19;;;;;;;9.00;7.33;;;;;;;19.89;67.30;99538.00;4946382;28;20209;-78
2022/08/29 01:42:45;;;;;;;9.17;8.30;;;;;;;19.82;67.58;99537.81;4947645;28;20210;-78
2022/08/29 01:45:11;;;;;;;8.70;7.80;;;;;;;19.77;67.56;99532.13;4944779;28;20298;-78
2022/08/29 01:47:38;;;;;;;11.00;8.20;;;;;;;19.71;67.60;99535.41;4944631;28;20205;-78
2022/08/29 01:50:13;;;;;;;12.00;8.20;;;;;;;19.67;67.68;99536.72;4944076;28;20985;-78
2022/08/29 01:52:40;;;;;;;9.07;7.40;;;;;;;19.65;67.93;99539.50;4946173;28;20465;-78
2022/08/29 01:55:06;;;;;;;8.90;8.00;;;;;;;19.62;67.94;99537.16;4946386;28;20485;-78
2022/08/29 01:57:31;;;;;;;8.83;8.00;;;;;;;19.60;67.62;99540.97;4943911;28;20867;-78
2022/08/29 01:59:57;;;;;;;10.37;7.87;;;;;;;19.58;68.11;99537.66;4942453;28;20298;-78
2022/08/29 02:02:27;;;;;;;8.03;7.23;;;;;;;19.57;68.08;99535.97;4947256;28;20680;-78
2022/08/29 02:04:56;;;;;;;9.30;8.40;;;;;;;19.58;67.91;99543.81;4944605;28;20493;-78
2022/08/29 02:07:23;;;;;;;9.17;8.33;;;;;;;19.60;67.93;99540.97;4946134;28;20954;-78
2022/08/29 02:09:49;;;;;;;9.63;8.10;;;;;;;19.58;67.94;99538.47;4944332;28;20448;-78
2022/08/29 02:12:16;;;;;;;9.30;8.30;;;;;;;19.58;68.13;99537.66;4946933;28;20467;-78
2022/08/29 02:14:42;;;;;;;9.00;7.90;;;;;;;19.57;68.15;99544.78;4944548;28;20901;-78
2022/08/29 02:17:08;;;;;;;13.03;8.33;;;;;;;19.54;68.10;99537.09;4945697;28;20856;-78
2022/08/29 02:19:35;;;;;;;9.40;8.23;;;;;;;19.48;68.21;99540.41;4939811;28;20592;-78
2022/08/29 02:22:01;;;;;;;10.33;8.93;;;;;;;19.43;68.52;99537.38;4946473;28;20544;-78
2022/08/29 02:24:27;;;;;;;11.03;7.87;;;;;;;19.37;68.47;99546.81;4943834;28;20567;-78
2022/08/29 02:26:54;;;;;;;8.43;7.70;;;;;;;19.32;68.67;99542.97;4943053;28;20606;-78
2022/08/29 02:29:20;;;;;;;9.47;8.47;;;;;;;19.24;69.12;99547.22;4944412;28;20496;-78
2022/08/29 02:31:46;;;;;;;8.80;8.00;;;;;;;19.18;69.04;99552.34;4944913;28;20932;-78
2022/08/29 02:34:11;;;;;;;9.33;8.40;;;;;;;19.16;69.32;99551.66;4945582;28;20232;-78
2022/08/29 02:36:37;;;;;;;11.97;9.30;;;;;;;19.13;69.36;99558.13;4945658;28;20937;-78
2022/08/29 02:39:03;;;;;;;12.27;9.00;;;;;;;19.10;69.44;99550.44;4941762;28;20504;-78
2022/08/29 02:41:30;;;;;;;12.47;8.80;;;;;;;19.08;69.42;99552.41;4945502;28;20212;-78
2022/08/29 02:43:56;;;;;;;10.07;8.97;;;;;;;19.07;69.62;99558.75;4945468;28;20476;-78
2022/08/29 02:46:21;;;;;;;11.10;9.07;;;;;;;19.04;69.28;99559.06;4945637;28;20465;-78
2022/08/29 02:48:47;;;;;;;9.37;7.70;;;;;;;19.04;69.77;99560.84;4943749;28;20459;-78
2022/08/29 02:51:21;;;;;;;11.77;8.87;;;;;;;19.01;69.64;99567.34;4943448;28;20285;-78
2022/08/29 02:53:47;;;;;;;9.83;8.70;;;;;;;19.01;69.78;99562.03;4944794;28;20196;-78
2022/08/29 02:56:13;;;;;;;10.53;9.37;;;;;;;19.03;69.77;99565.34;4945303;28;20960;-78
2022/08/29 02:58:38;;;;;;;11.23;8.37;;;;;;;19.07;69.55;99565.91;4943723;28;20228;-78
2022/08/29 03:01:04;;;;;;;12.60;10.10;;;;;;;19.08;69.65;99563.06;4945506;28;21107;-78
2022/08/29 03:03:31;;;;;;;8.90;7.97;;;;;;;19.06;69.64;99562.38;4944525;28;20208;-78
2022/08/29 03:05:57;;;;;;;13.10;9.20;;;;;;;19.04;69.31;99558.19;4943993;28;20672;-78
2022/08/29 03:08:23;;;;;;;12.70;9.10;;;;;;;19.01;69.45;99557.53;4943114;28;20910;-78
2022/08/29 03:10:48;;;;;;;12.37;8.80;;;;;;;19.01;69.37;99567.34;4941417;28;20496;-78
2022/08/29 03:13:14;;;;;;;8.87;7.87;;;;;;;19.00;69.36;99560.34;4942362;28;20197;-78
2022/08/29 03:15:40;;;;;;;9.03;8.13;;;;;;;19.00;69.63;99566.50;4944867;28;20442;-78
2022/08/29 03:18:06;;;;;;;11.93;8.60;;;;;;;19.02;69.47;99563.69;4943557;28;20944;-78
2022/08/29 03:20:33;;;;;;;10.87;8.30;;;;;;;19.03;69.12;99560.03;4939538;28;20426;-78
2022/08/29 03:22:59;;;;;;;11.27;8.83;;;;;;;19.05;69.31;99563.38;4942784;28;20469;-78
2022/08/29 03:25:24;;;;;;;9.73;8.70;;;;;;;19.05;69.05;99559.88;4939835;28;20528;-78
2022/08/29 03:27:51;;;;;;;9.73;8.37;;;;;;;19.05;68.91;99560.72;4942855;28;20217;-78
2022/08/29 03:30:17;;;;;;;9.10;8.23;;;;;;;19.05;68.92;99551.91;4942192;28;20207;-78
2022/08/29 03:32:43;;;;;;;9.90;8.20;;;;;;;19.04;69.34;99547.53;4945998;28;20449;-78
2022/08/29 03:35:10;;;;;;;12.30;9.57;;;;;;;19.02;69.42;99547.72;4938557;28;20523;-78
2022/08/29 03:37:35;;;;;;;10.17;9.07;;;;;;;19.01;69.40;99554.03;4942300;28;20742;-78
2022/08/29 03:40:03;;;;;;;10.07;8.97;;;;;;;18.98;69.19;99551.66;4942768;28;20461;-78
2022/08/29 03:42:29;;;;;;;10.10;7.80;;;;;;;18.96;69.30;99553.66;4945357;28;20210;-78
2022/08/29 03:44:54;;;;;;;13.07;7.97;;;;;;;18.95;69.38;99546.66;4945154;28;20928;-78
2022/08/29 03:47:20;;;;;;;9.83;8.27;;;;;;;18.92;69.43;99542.47;4943755;28;20627;-78
2022/08/29 03:49:45;;;;;;;11.10;8.93;;;;;;;18.89;69.61;99545.44;4944963;28;20263;-78
2022/08/29 03:52:10;;;;;;;9.03;8.10;;;;;;;18.86;69.65;99548.41;4944061;28;20249;-78
2022/08/29 03:54:37;;;;;;;9.90;7.70;;;;;;;18.84;69.58;99546.88;4944999;28;20584;-78
2022/08/29 03:57:07;;;;;;;8.70;7.33;;;;;;;18.78;69.69;99546.50;4943883;28;20233;-78
2022/08/29 03:59:33;;;;;;;9.03;8.20;;;;;;;18.75;69.79;99551.31;4944545;28;20479;-78
2022/08/29 04:01:59;;;;;;;10.10;8.70;;;;;;;18.71;69.90;99548.09;4942184;29;20470;-79
2022/08/29 04:07:12;;;;;;;9.90;7.80;;;;;;;18.69;70.18;99552.72;4944919;28;20209;-78
2022/08/29 04:09:39;;;;;;;11.00;8.20;;;;;;;18.67;69.95;99540.53;4945163;28;21005;-78
2022/08/29 04:12:10;;;;;;;10.53;8.77;;;;;;;18.62;69.82;99550.81;4943594;28;20480;-78
2022/08/29 04:14:39;;;;;;;12.70;8.37;;;;;;;18.54;70.25;99548.88;4943321;28;20477;-78
2022/08/29 04:17:04;;;;;;;9.50;8.60;;;;;;;18.47;70.42;99553.13;4942453;28;20517;-78
2022/08/29 04:19:30;;;;;;;12.17;9.33;;;;;;;18.40;70.50;99552.06;4943363;28;20579;-78
2022/08/29 04:21:56;;;;;;;14.30;9.50;;;;;;;18.34;70.48;99557.00;4942093;28;20251;-78
2022/08/29 04:24:23;;;;;;;10.97;9.77;;;;;;;18.28;71.02;99568.22;4943721;28;20662;-78
2022/08/29 04:26:49;;;;;;;9.93;9.03;;;;;;;18.22;71.13;99563.47;4944141;28;20458;-78
2022/08/29 04:29:14;;;;;;;11.90;9.57;;;;;;;18.16;71.14;99564.06;4939861;28;21064;-78
2022/08/29 04:31:42;;;;;;;12.07;9.33;;;;;;;18.13;70.89;99569.69;4943215;28;20192;-78
2022/08/29 04:34:10;;;;;;;14.70;9.77;;;;;;;18.11;70.84;99575.13;4941951;28;20236;-79
2022/08/29 04:36:38;;;;;;;13.60;10.27;;;;;;;18.09;70.85;99577.13;4943422;28;20551;-79
2022/08/29 04:39:04;;;;;;;11.03;9.93;;;;;;;18.05;71.09;99581.06;4941504;28;21202;-79
2022/08/29 04:41:30;;;;;;;13.43;10.20;;;;;;;18.01;70.77;99581.47;4942531;28;20928;-79
2022/08/29 04:43:56;;;;;;;11.53;10.07;;;;;;;17.99;71.00;99591.44;4938797;28;20567;-79
2022/08/29 04:46:21;;;;;;;11.97;8.73;;;;;;;17.98;70.99;99603.88;4941913;28;20472;-79
2022/08/29 04:48:47;;;;;;;9.13;8.20;;;;;;;17.96;70.79;99608.50;4939779;28;20299;-78
2022/08/29 04:51:13;;;;;;;9.63;8.10;;;;;;;17.94;70.80;99613.13;4943236;28;20300;-79
2022/08/29 04:53:38;;;;;;;10.43;7.00;;;;;;;17.95;70.39;99616.63;4940728;28;20276;-79
2022/08/29 04:56:08;;;;;;;9.00;6.67;;;;;;;17.94;70.19;99612.28;4941594;28;20228;-79
2022/08/29 04:58:36;;;;;;;8.33;6.07;;;;;;;17.93;69.63;99624.75;4938712;28;20851;-80
2022/08/29 05:01:02;;;;;;;12.07;6.60;;;;;;;17.92;69.49;99626.53;4940649;28;20829;-79
2022/08/29 05:03:29;;;;;;;8.27;7.30;;;;;;;17.96;69.23;99629.78;4940050;28;20500;-79
2022/08/29 05:06:05;;;;;;;7.50;6.50;;;;;;;18.07;68.97;99628.75;4941609;28;20511;-79
2022/08/29 05:08:32;;;;;;;7.63;6.50;;;;;;;18.31;68.23;99622.94;4943008;28;20491;-79
2022/08/29 05:10:58;;;;;;;8.80;6.13;;;;;;;18.58;67.24;99628.25;4940988;28;21054;-79
2022/08/29 05:13:23;;;;;;;8.50;5.97;;;;;;;18.89;66.13;99635.94;4941648;28;20515;-79
2022/08/29 05:15:49;;;;;;;6.23;5.40;;;;;;;19.15;65.16;99635.19;4942100;28;20204;-79
2022/08/29 05:18:16;;;;;;;7.27;5.80;;;;;;;19.38;63.90;99627.56;4937031;28;20225;-79
2022/08/29 05:20:44;;;;;;;6.97;5.40;;;;;;;19.63;63.10;99634.78;4937681;28;20220;-78
2022/08/29 05:23:10;;;;;;;9.27;5.30;;;;;;;19.86;62.21;99628.97;4937687;28;20527;-79
2022/08/29 05:25:36;;;;;;;7.60;6.00;;;;;;;20.10;61.42;99630.94;4944258;28;20492;-80
2022/08/29 05:28:02;;;;;;;6.70;5.13;;;;;;;20.28;60.93;99631.69;4947082;28;20575;-79
2022/08/29 05:30:27;;;;;;;6.53;5.00;;;;;;;20.30;60.60;99634.19;4942024;28;20276;-79
2022/08/29 05:32:56;;;;;;;8.83;5.77;;;;;;;20.26;60.59;99631.03;4938483;28;21013;-80
2022/08/29 05:35:21;;;;;;;6.93;4.80;;;;;;;20.27;60.53;99635.34;4941027;28;20976;-80
2022/08/29 05:37:47;;;;;;;9.57;5.67;;;;;;;20.27;60.49;99645.19;4938713;28;20493;-80
2022/08/29 05:40:12;;;;;;;8.83;5.67;;;;;;;20.19;60.45;99642.47;4940929;28;20581;-80
2022/08/29 05:42:38;;;;;;;12.57;5.50;;;;;;;19.95;60.38;99641.34;4942309;29;20478;-80
2022/08/29 05:45:04;;;;;;;8.13;5.40;;;;;;;19.67;61.00;99643.31;4941601;28;20332;-80
2022/08/29 05:47:30;;;;;;;9.13;6.00;;;;;;;19.47;61.67;99639.97;4942237;28;20200;-79
2022/08/29 05:49:56;;;;;;;9.33;5.90;;;;;;;19.27;62.03;99652.59;4941607;28;20495;-78
2022/08/29 05:52:22;;;;;;;6.77;5.20;;;;;;;19.16;62.28;99656.31;4941331;28;20832;-80
2022/08/29 05:54:48;;;;;;;12.33;6.30;;;;;;;19.11;62.67;99655.13;4940502;28;20397;-78
2022/08/29 05:57:17;;;;;;;6.00;5.40;;;;;;;19.09;62.92;99655.28;4941759;28;20500;-79
2022/08/29 05:59:42;;;;;;;8.30;6.00;;;;;;;19.10;62.90;99662.28;4942298;28;20310;-80
2022/08/29 06:02:09;;;;;;;8.40;5.70;;;;;;;19.28;62.67;99656.09;4941538;28;20622;-79
2022/08/29 06:04:34;;;;;;;8.63;5.03;;;;;;;19.49;61.99;99661.94;4942343;28;20219;-80
2022/08/29 06:07:00;;;;;;;9.70;6.17;;;;;;;19.81;61.12;99655.25;4942176;28;20881;-79
2022/08/29 06:09:25;;;;;;;5.53;5.03;;;;;;;20.25;59.96;99666.69;4940517;28;20230;-79
2022/08/29 06:11:56;;;;;;;8.73;5.43;;;;;;;20.84;58.58;99660.63;4942554;28;20213;-79
2022/08/29 06:14:21;;;;;;;7.63;5.73;;;;;;;21.49;56.70;99662.59;4941298;28;20212;-79
2022/08/29 06:16:47;;;;;;;5.70;4.77;;;;;;;22.05;55.23;99663.56;4941688;28;20551;-79
2022/08/29 06:19:13;;;;;;;6.80;4.77;;;;;;;22.53;53.61;99657.25;4939776;28;20329;-80
2022/08/29 06:21:38;;;;;;;10.17;6.10;;;;;;;23.02;52.76;99655.38;4941682;28;20314;-79
2022/08/29 06:24:04;;;;;;;6.70;5.90;;;;;;;23.45;51.07;99659.25;4941424;28;20462;-79
2022/08/29 06:26:33;;;;;;;5.73;4.90;;;;;;;23.79;50.48;99666.03;4940669;28;20274;-79
2022/08/29 06:28:58;;;;;;;6.43;4.90;;;;;;;24.13;49.23;99667.38;4938486;28;20484;-79
2022/08/29 06:31:27;;;;;;;7.67;5.20;;;;;;;24.35;48.46;99658.41;4942420;28;20805;-79
2022/08/29 06:33:56;;;;;;;7.13;5.03;;;;;;;24.70;47.03;99664.88;4939320;28;20755;-79
2022/08/29 06:36:24;;;;;;;5.00;4.50;;;;;;;24.80;46.71;99667.28;4937316;28;20302;-79
2022/08/29 06:38:50;;;;;;;6.90;4.77;;;;;;;24.87;46.44;99667.34;4939457;28;20548;-80
2022/08/29 06:46:51;;;;;;;6.30;5.17;;;;;;;23.75;48.26;99670.09;4918703;29;20958;-79
2022/08/29 06:49:19;;;;;;;8.03;4.90;;;;;;;23.17;49.73;99681.22;4944678;23;20667;-69
2022/08/29 06:51:48;;;;;;;7.77;5.20;;;;;;;22.64;51.04;99682.81;4929186;28;20518;-73
2022/08/29 06:54:15;;;;;;;8.20;5.70;;;;;;;22.26;51.54;99677.25;4936750;28;20556;-70
2022/08/29 06:56:42;;;;;;;7.73;5.67;;;;;;;21.97;52.33;99674.25;4940455;28;20512;-70
2022/08/29 06:59:08;;;;;;;10.10;5.10;;;;;;;21.63;53.07;99684.16;4936266;28;20483;-69
2022/08/29 07:01:34;;;;;;;9.57;5.83;;;;;;;21.32;54.02;99689.28;4940299;28;20457;-70
2022/08/29 07:04:00;;;;;;;10.77;5.30;;;;;;;21.10;54.60;99682.72;4939013;28;20479;-69
2022/08/29 07:06:27;;;;;;;7.07;4.60;;;;;;;20.96;54.98;99683.38;4939944;28;20493;-71
2022/08/29 07:08:52;;;;;;;5.40;4.73;;;;;;;20.90;55.34;99684.84;4939022;29;20481;-71
2022/08/29 07:11:18;;;;;;;5.00;4.60;;;;;;;20.89;55.34;99685.84;4939134;28;20544;-72
2022/08/29 07:13:43;;;;;;;6.00;5.00;;;;;;;20.85;55.61;99691.69;4939933;28;20220;-69
2022/08/29 07:16:13;;;;;;;8.23;4.83;;;;;;;20.81;55.65;99688.47;4939970;28;20232;-71
2022/08/29 07:18:39;;;;;;;6.07;4.30;;;;;;;20.86;55.77;99688.84;4937762;28;20309;-72
2022/08/29 07:21:08;;;;;;;6.83;4.70;;;;;;;20.96;55.74;99689.53;4938912;28;20610;-71
2022/08/29 07:23:35;;;;;;;5.87;4.63;;;;;;;21.20;54.73;99683.41;4939719;28;20216;-72
2022/08/29 07:26:21;;;;;;;6.33;5.03;;;;;;;21.91;53.00;99678.47;4940060;28;20503;-72
2022/08/29 07:28:49;;;;;;;5.77;4.00;;;;;;;22.81;50.87;99672.84;4938791;28;20863;-72
2022/08/29 07:31:15;;;;;;;6.10;4.30;;;;;;;23.63;49.21;99670.50;4940162;28;20499;-72
2022/08/29 07:33:40;;;;;;;8.20;4.97;;;;;;;24.62;46.53;99670.34;4938568;28;20505;-72
2022/08/29 07:36:06;;;;;;;6.43;5.17;;;;;;;25.30;45.11;99673.66;4938957;28;20207;-72
2022/08/29 07:38:32;;;;;;;7.90;4.67;;;;;;;25.77;43.77;99668.69;4938330;28;20692;-70
2022/08/29 07:41:04;;;;;;;8.97;4.60;;;;;;;26.12;43.48;99666.91;4937059;28;20720;-72
2022/08/29 07:43:29;;;;;;;6.83;4.47;;;;;;;26.34;42.88;99661.44;4938236;28;20501;-72
2022/08/29 07:45:55;;;;;;;8.00;4.60;;;;;;;26.63;42.33;99663.09;4936176;28;20555;-69
2022/08/29 07:48:21;;;;;;;7.47;4.60;;;;;;;27.03;41.75;99666.75;4935573;28;20708;-70
2022/08/29 07:50:47;;;;;;;5.60;4.47;;;;;;;27.31;41.10;99674.72;4975769;28;20324;-72
2022/08/29 07:53:13;;;;;;;6.23;4.53;;;;;;;27.57;40.46;99671.22;4972023;28;20473;-72
2022/08/29 07:55:38;;;;;;;8.10;4.90;;;;;;;27.72;39.87;99662.09;4976891;28;20306;-71
2022/08/29 07:58:04;;;;;;;6.03;5.37;;;;;;;27.89;39.59;99674.16;4977123;28;20563;-69
2022/08/29 08:00:30;;;;;;;4.83;4.33;;;;;;;27.88;39.53;99668.97;4976621;28;20247;-72
2022/08/29 08:02:55;;;;;;;7.68;5.30;;;;;;;28.08;39.15;99674.34;4975891;28;20503;-73
2022/08/29 08:05:21;;;;;;;6.00;4.60;;;;;;;28.14;38.80;99668.94;4978003;28;20201;-73
2022/08/29 08:07:48;;;;;;;6.23;5.00;;;;;;;28.05;38.96;99670.19;4977414;28;20231;-71
2022/08/29 08:10:16;;;;;;;7.83;4.57;;;;;;;28.06;38.99;99663.75;4978173;28;20480;-69
2022/08/29 08:12:42;;;;;;;7.17;4.37;;;;;;;28.07;38.75;99664.59;4976241;28;21000;-72
2022/08/29 08:15:08;;;;;;;5.10;4.70;;;;;;;28.17;38.26;99665.00;4975438;28;20458;-73
2022/08/29 08:17:34;;;;;;;4.93;4.43;;;;;;;28.28;38.13;99669.75;4979658;28;20503;-70
2022/08/29 08:19:59;;;;;;;5.83;4.57;;;;;;;28.45;38.12;99672.84;4979500;28;20596;-72
2022/08/29 08:22:24;;;;;;;5.13;4.30;;;;;;;28.42;38.03;99674.06;4978639;28;20253;-71
2022/08/29 08:24:50;;;;;;;6.63;5.07;;;;;;;28.32;38.25;99672.84;4980171;28;20572;-72
2022/08/29 08:27:15;;;;;;;5.93;4.87;;;;;;;28.18;38.52;99672.88;4980413;28;20205;-72
2022/08/29 08:29:42;;;;;;;6.87;4.60;;;;;;;28.20;38.24;99675.38;4981250;28;20221;-70
2022/08/29 08:32:08;;;;;;;8.10;4.73;;;;;;;28.23;38.10;99680.34;4979788;28;20897;-70
2022/08/29 08:34:33;;;;;;;8.87;5.70;;;;;;;28.28;38.51;99677.84;4979132;28;20462;-72
2022/08/29 08:36:58;;;;;;;7.17;4.60;;;;;;;28.49;38.08;99671.38;4981415;28;20273;-72
2022/08/29 08:39:24;;;;;;;5.50;4.90;;;;;;;28.76;38.03;99674.81;4979776;28;20307;-72
2022/08/29 08:41:56;;;;;;;7.20;4.73;;;;;;;28.95;37.35;99686.59;4982276;28;20220;-72
2022/08/29 08:44:21;;;;;;;5.13;4.20;;;;;;;28.86;37.13;99680.56;4978077;28;20205;-71
2022/08/29 08:46:51;;;;;;;6.17;4.67;;;;;;;28.83;37.31;99681.00;4981523;28;20522;-70
2022/08/29 08:49:33;;;;;;;5.30;4.77;;;;;;;28.57;37.53;99676.56;4979425;28;20332;-70
2022/08/29 08:52:05;;;;;;;7.77;4.93;;;;;;;28.38;37.75;99670.13;4981406;28;20481;-72
2022/08/29 08:54:40;;;;;;;7.07;5.00;;;;;;;28.15;38.29;99669.75;4978822;28;20491;-71
2022/08/29 08:57:08;;;;;;;7.43;5.10;;;;;;;27.96;38.62;99674.97;4975859;28;20483;-70
2022/08/29 08:59:45;;;;;;;6.07;4.73;;;;;;;27.80;39.24;99670.84;4974489;28;20474;-72
2022/08/29 09:02:31;;;;;;;4.90;3.70;;;;;;;27.82;38.85;99673.34;4973614;28;21264;-72
2022/08/29 09:05:05;;;;;;;5.77;4.20;;;;;;;27.89;38.75;99670.63;4981645;28;20681;-70
2022/08/29 09:07:38;;;;;;;7.60;4.70;;;;;;;27.90;38.90;99667.72;4980581;28;20990;-70
2022/08/29 09:10:23;;;;;;;6.60;4.53;;;;;;;27.90;38.79;99665.03;4979818;28;20483;-72
2022/08/29 09:13:07;;;;;;;5.00;4.50;;;;;;;27.73;39.27;99661.91;4980617;28;20947;-72
2022/08/29 09:15:47;;;;;;;7.83;6.10;;;;;;;27.56;39.72;99658.75;4980517;28;20468;-72
2022/08/29 09:18:33;;;;;;;9.50;6.63;;;;;;;27.24;39.63;99659.56;4978882;28;20546;-71
2022/08/29 09:21:02;;;;;;;6.90;5.27;;;;;;;26.92;41.01;99661.94;4979936;28;20472;-71
2022/08/29 09:23:41;;;;;;;5.93;5.33;;;;;;;26.84;41.14;99662.09;4978722;28;20804;-70
2022/08/29 09:26:07;;;;;;;6.87;5.00;;;;;;;26.84;41.24;99665.66;4981612;28;21184;-70
2022/08/29 09:28:33;;;;;;;7.13;5.20;;;;;;;26.93;40.75;99666.31;4978484;28;20551;-70
2022/08/29 09:31:17;;;;;;;7.37;5.10;;;;;;;27.08;40.66;99671.50;4979261;28;20745;-72
2022/08/29 09:33:48;;;;;;;6.87;4.83;;;;;;;27.20;40.51;99663.72;4979135;28;20452;-72
2022/08/29 09:36:31;;;;;;;5.70;4.43;;;;;;;27.26;40.84;99665.59;4979208;28;20474;-71
2022/08/29 09:39:09;;;;;;;10.57;4.40;;;;;;;27.51;40.28;99665.81;4978333;28;20518;-72
2022/08/29 09:41:34;;;;;;;10.30;5.27;;;;;;;27.72;39.80;99662.09;4978064;28;20968;-71
2022/08/29 09:43:59;;;;;;;6.00;4.77;;;;;;;27.93;39.57;99670.00;4980105;28;20467;-72
2022/08/29 09:46:25;;;;;;;7.32;5.70;;;;;;;28.04;39.36;99665.00;4978663;28;20570;-72
2022/08/29 09:49:17;;;;;;;6.20;5.30;;;;;;;28.09;39.22;99657.94;4976347;28;20264;-70
2022/08/29 09:51:47;;;;;;;4.97;4.47;;;;;;;28.08;39.18;99653.56;4980273;28;20708;-72
2022/08/29 09:54:21;;;;;;;5.40;4.90;;;;;;;28.04;39.38;99648.81;4976611;28;20823;-71
2022/08/29 09:57:01;;;;;;;5.97;4.63;;;;;;;28.09;39.35;99649.84;4979950;28;20531;-72
2022/08/29 09:59:32;;;;;;;8.00;5.17;;;;;;;28.13;39.40;99639.44;4977158;28;20491;-71
2022/08/29 10:02:36;;;;;;;12.90;5.53;;;;;;;28.20;39.42;99642.97;4962066;28;20461;-71
2022/08/29 10:05:06;;;;;;;6.43;5.03;;;;;;;28.27;39.35;99649.16;4956426;28;20531;-72
2022/08/29 10:07:44;;;;;;;5.53;4.33;;;;;;;28.33;39.11;99636.69;4979016;28;20468;-71
2022/08/29 10:10:21;;;;;;;6.07;4.80;;;;;;;28.43;39.16;99639.78;4977409;28;20842;-71
2022/08/29 10:13:14;;;;;;;11.60;5.47;;;;;;;28.56;39.17;99644.31;4979203;28;20499;-71
2022/08/29 10:15:54;;;;;;;7.97;5.40;;;;;;;28.70;38.71;99640.50;4980838;28;20565;-72
2022/08/29 10:18:57;;;;;;;6.40;4.77;;;;;;;28.83;38.23;99635.03;4977107;28;21057;-70
2022/08/29 10:21:52;;;;;;;6.27;4.70;;;;;;;28.88;38.06;99629.81;4977885;28;20455;-72
2022/08/29 10:24:29;;;;;;;6.73;5.57;;;;;;;28.84;37.81;99623.19;4977984;28;20456;-70
2022/08/29 10:27:11;;;;;;;5.53;3.47;;;;;;;28.84;38.31;99623.19;4977183;28;20755;-71
2022/08/29 10:29:39;;;;;;;8.00;4.30;;;;;;;28.86;37.81;99620.25;4978387;28;20847;-73
2022/08/29 10:32:36;;;;;;;16.67;5.90;;;;;;;28.79;38.21;99614.91;4978737;28;20475;-70
2022/08/29 10:35:29;;;;;;;4.70;4.07;;;;;;;28.86;38.65;99617.56;4978504;28;20464;-72
2022/08/29 10:38:11;;;;;;;5.10;4.60;;;;;;;28.97;38.48;99616.88;4976677;28;20502;-71
2022/08/29 10:40:52;;;;;;;5.30;4.77;;;;;;;29.06;38.36;99617.50;4979040;28;20636;-71
2022/08/29 10:43:37;;;;;;;11.40;4.70;;;;;;;29.06;38.43;99612.91;4975353;28;20470;-72
2022/08/29 10:46:16;;;;;;;7.30;5.10;;;;;;;29.07;38.38;99609.16;4978217;28;20514;-71
2022/08/29 10:48:48;;;;;;;6.53;5.97;;;;;;;29.20;38.21;99604.69;4977261;28;20491;-72
2022/08/29 10:51:28;;;;;;;7.27;4.20;;;;;;;29.32;37.98;99601.03;4977376;28;20457;-72
2022/08/29 10:54:10;;;;;;;8.77;5.50;;;;;;;29.40;37.99;99597.25;4958456;28;20591;-73
2022/08/29 10:56:41;;;;;;;7.17;4.83;;;;;;;29.47;37.74;99598.03;4978017;28;20883;-73
2022/08/29 10:59:25;;;;;;;7.97;4.87;;;;;;;29.54;37.62;99596.09;4977724;28;20577;-71
2022/08/29 11:01:59;;;;;;;5.17;4.63;;;;;;;29.54;37.79;99596.09;4978011;28;20457;-72
2022/08/29 11:04:24;;;;;;;7.33;4.87;;;;;;;29.48;37.98;99596.13;4977455;28;20474;-72
2022/08/29 11:06:59;;;;;;;8.60;5.33;;;;;;;29.48;37.95;99586.13;4979570;28;20460;-71
2022/08/29 11:09:29;;;;;;;6.50;5.53;;;;;;;29.51;37.94;99584.88;4979462;28;20232;-72
2022/08/29 11:12:09;;;;;;;6.37;5.30;;;;;;;29.55;37.90;99575.28;4979009;28;20470;-72
2022/08/29 11:14:44;;;;;;;6.17;5.57;;;;;;;29.51;38.14;99582.16;4977319;28;21178;-72
2022/08/29 11:17:12;;;;;;;5.40;4.90;;;;;;;29.47;38.28;99570.13;4977298;28;20584;-72
2022/08/29 11:20:08;;;;;;;7.93;5.60;;;;;;;29.43;38.32;99577.03;4976417;28;20520;-70
2022/08/29 11:22:44;;;;;;;6.87;6.17;;;;;;;29.42;38.48;99569.97;4976473;28;20475;-72
2022/08/29 11:25:11;;;;;;;5.50;5.00;;;;;;;29.47;38.48;99567.44;4975799;28;20447;-72
2022/08/29 11:27:56;;;;;;;5.80;5.20;;;;;;;29.46;38.24;99569.31;4976576;28;20452;-72
2022/08/29 11:30:30;;;;;;;5.60;5.10;;;;;;;29.41;38.38;99569.16;4976396;28;21069;-73
2022/08/29 11:33:31;;;;;;;8.70;5.90;;;;;;;29.44;38.77;99559.75;4975928;28;20470;-75
2022/08/29 11:36:18;;;;;;;6.23;5.27;;;;;;;29.48;38.97;99555.53;4973403;28;20513;-71
2022/08/29 11:38:58;;;;;;;8.63;4.80;;;;;;;29.48;38.84;99561.78;4971564;28;21326;-71
2022/08/29 11:41:29;;;;;;;9.13;6.53;;;;;;;29.51;39.05;99565.94;4971329;28;20948;-72
2022/08/29 11:44:21;;;;;;;7.10;5.77;;;;;;;29.54;38.57;99558.22;4975396;28;20475;-71
2022/08/29 11:46:49;;;;;;;6.27;5.57;;;;;;;29.59;39.01;99554.81;4972071;28;20981;-73
2022/08/29 11:49:19;;;;;;;6.80;5.97;;;;;;;29.62;38.81;99556.25;4975290;28;20490;-71
2022/08/29 11:51:51;;;;;;;8.33;6.70;;;;;;;29.67;38.96;99551.84;4972554;28;20626;-70
2022/08/29 11:54:22;;;;;;;6.67;6.07;;;;;;;29.68;38.36;99550.00;4976872;28;20587;-71